Time;durP1;ratioP1;P1;durP2;ratioP2;P2;SDS_P1;SDS_P2;PMS_P1;PMS_P2;Temp;Humidity;BMP_temperature;BMP_pressure;BME280_temperature;BME280_humidity;BME280_pressure;Samples;Min_cycle;Max_cycle;Signal;HPM_P1;HPM_P2
2022/03/26 00:03:45;;;;;;;33.23;19.70;;;10.00;48.00;;;;;;20993910;28;20238;-70
2022/03/26 00:13:47;;;;;;;40.00;19.77;;;10.00;48.60;;;;;;20993997;28;20205;-71
2022/03/26 00:23:49;;;;;;;35.87;19.43;;;9.80;49.10;;;;;;20993127;28;20241;-71
2022/03/26 00:33:53;;;;;;;39.13;20.13;;;9.70;49.60;;;;;;20992981;28;20723;-72
2022/03/26 00:43:56;;;;;;;34.20;18.87;;;9.60;49.70;;;;;;20992923;28;20234;-71
2022/03/26 00:53:57;;;;;;;45.10;22.00;;;9.50;49.60;;;;;;21001791;28;20203;-72
2022/03/26 01:03:59;;;;;;;39.70;17.80;;;9.30;49.60;;;;;;21006592;28;20230;-71
2022/03/26 01:14:01;;;;;;;47.00;20.23;;;9.30;50.30;;;;;;21006290;28;20261;-72
2022/03/26 01:24:03;;;;;;;36.73;18.83;;;9.20;50.90;;;;;;21005024;28;20636;-71
2022/03/26 01:34:05;;;;;;;33.10;17.43;;;9.10;50.40;;;;;;21004329;28;20210;-71
2022/03/26 01:44:12;;;;;;;42.60;18.90;;;8.80;51.90;;;;;;21003773;28;20301;-69
2022/03/26 01:54:17;;;;;;;40.27;19.70;;;8.60;51.70;;;;;;21002977;28;20214;-71
2022/03/26 02:04:19;;;;;;;41.80;20.00;;;8.60;51.90;;;;;;21001092;28;20240;-71
2022/03/26 02:14:22;;;;;;;40.27;18.37;;;8.50;52.10;;;;;;21001510;28;20231;-71
2022/03/26 02:24:24;;;;;;;35.40;17.50;;;8.50;52.30;;;;;;20999927;28;20324;-70
2022/03/26 02:34:26;;;;;;;33.43;16.77;;;8.30;51.90;;;;;;20999472;28;20208;-71
2022/03/26 02:44:48;;;;;;;34.23;17.27;;;8.30;52.40;;;;;;20984692;28;20335;-71
2022/03/26 02:54:50;;;;;;;31.57;17.20;;;8.20;52.40;;;;;;20998221;28;20655;-72
2022/03/26 03:04:52;;;;;;;30.03;16.87;;;8.00;53.00;;;;;;20997091;28;20756;-71
2022/03/26 03:14:54;;;;;;;36.27;16.53;;;8.00;52.90;;;;;;20995643;28;20733;-71
2022/03/26 03:24:55;;;;;;;32.43;16.60;;;7.80;53.20;;;;;;20999092;28;20255;-71
2022/03/26 03:34:57;;;;;;;44.97;17.17;;;7.70;53.80;;;;;;20995674;28;20207;-71
2022/03/26 03:44:59;;;;;;;32.03;16.53;;;7.60;53.60;;;;;;20994805;28;20243;-71
2022/03/26 03:55:01;;;;;;;31.73;16.27;;;7.40;53.80;;;;;;20994866;28;20658;-71
2022/03/26 04:05:03;;;;;;;41.97;17.17;;;7.30;54.30;;;;;;20995001;28;20237;-70
2022/03/26 04:15:09;;;;;;;31.47;16.53;;;7.20;54.30;;;;;;20995090;28;20605;-70
2022/03/26 04:25:11;;;;;;;30.13;16.10;;;7.10;53.90;;;;;;20998389;28;20238;-70
2022/03/26 04:35:13;;;;;;;32.03;16.37;;;7.00;54.00;;;;;;20992024;28;20211;-71
2022/03/26 04:45:15;;;;;;;29.97;16.23;;;6.80;54.40;;;;;;21008437;28;20687;-70
2022/03/26 04:55:18;;;;;;;29.40;15.57;;;6.80;54.80;;;;;;21007663;28;20214;-72
2022/03/26 05:05:20;;;;;;;28.47;15.50;;;6.80;55.00;;;;;;21006409;28;20231;-72
2022/03/26 05:15:24;;;;;;;30.70;15.53;;;6.80;55.20;;;;;;21005893;28;20273;-71
2022/03/26 05:25:25;;;;;;;30.27;16.23;;;6.70;54.80;;;;;;20987863;28;20235;-71
2022/03/26 05:35:27;;;;;;;30.47;16.37;;;6.70;55.00;;;;;;21003398;28;20204;-71
2022/03/26 05:45:29;;;;;;;33.70;16.27;;;6.70;55.80;;;;;;21003476;28;20231;-72
2022/03/26 05:55:31;;;;;;;32.63;16.70;;;6.70;55.30;;;;;;21004213;28;20219;-72
2022/03/26 06:05:33;;;;;;;63.83;16.70;;;6.70;55.90;;;;;;21002227;28;20300;-71
2022/03/26 06:15:34;;;;;;;32.73;16.40;;;6.70;56.20;;;;;;21000823;28;20235;-71
2022/03/26 06:25:45;;;;;;;37.27;16.60;;;6.70;56.70;;;;;;20984547;28;20241;-69
2022/03/26 06:35:47;;;;;;;28.70;16.40;;;7.00;56.40;;;;;;20999375;28;20211;-70
2022/03/26 06:45:52;;;;;;;32.27;16.03;;;7.10;56.90;;;;;;20998696;28;20233;-71
2022/03/26 06:55:55;;;;;;;37.00;16.23;;;7.30;57.50;;;;;;20998369;28;20205;-70
2022/03/26 07:05:56;;;;;;;31.07;15.40;;;7.50;56.50;;;;;;20997401;28;20309;-71
2022/03/26 07:15:58;;;;;;;36.40;17.17;;;7.60;56.80;;;;;;20996325;28;20287;-71
2022/03/26 07:26:00;;;;;;;28.97;15.07;;;8.00;56.80;;;;;;20996564;28;20232;-73
2022/03/26 07:36:02;;;;;;;36.53;16.63;;;8.40;57.10;;;;;;20995621;28;20209;-71
2022/03/26 07:46:04;;;;;;;33.23;17.33;;;8.40;57.40;;;;;;21018652;28;20763;-71
2022/03/26 07:56:06;;;;;;;33.13;17.33;;;8.90;56.60;;;;;;21063178;28;20210;-70
2022/03/26 08:06:08;;;;;;;39.27;18.57;;;9.20;56.20;;;;;;21034197;28;20234;-72
2022/03/26 08:16:10;;;;;;;35.57;18.13;;;9.50;56.00;;;;;;21009863;28;20559;-71
2022/03/26 08:26:22;;;;;;;29.57;17.53;;;9.60;56.50;;;;;;21011780;28;20668;-71
2022/03/26 08:36:24;;;;;;;38.50;19.97;;;10.30;54.50;;;;;;21072308;28;20718;-71
2022/03/26 08:46:26;;;;;;;36.23;18.47;;;10.40;54.90;;;;;;21091764;28;20231;-71
2022/03/26 08:56:28;;;;;;;37.03;18.40;;;10.70;54.50;;;;;;21091668;28;20260;-72
2022/03/26 09:06:30;;;;;;;38.17;19.93;;;11.30;54.10;;;;;;21090460;28;20230;-72
2022/03/26 09:16:31;;;;;;;39.97;21.73;;;11.50;54.10;;;;;;21089650;28;20230;-72
2022/03/26 09:26:33;;;;;;;53.00;22.80;;;11.90;53.80;;;;;;21089152;28;20227;-72
2022/03/26 09:36:36;;;;;;;37.87;20.33;;;12.20;52.90;;;;;;21088029;28;20233;-75
2022/03/26 09:46:38;;;;;;;39.23;20.50;;;13.00;52.10;;;;;;21052561;28;20583;-72
2022/03/26 09:56:39;;;;;;;44.40;20.20;;;13.10;52.40;;;;;;21025047;28;20557;-71
2022/03/26 10:06:51;;;;;;;51.72;31.83;;;13.40;51.10;;;;;;21038114;28;20501;-70
2022/03/26 10:16:52;;;;;;;35.57;18.13;;;14.40;48.90;;;;;;21084744;28;20234;-72
2022/03/26 10:26:57;;;;;;;39.80;20.40;;;14.20;48.60;;;;;;21000925;28;20326;-71
2022/03/26 10:37:01;;;;;;;32.28;16.90;;;14.40;47.60;;;;;;20996027;28;20433;-71
2022/03/26 10:47:04;;;;;;;31.20;14.10;;;15.00;45.30;;;;;;20999084;28;20233;-69
2022/03/26 10:57:06;;;;;;;32.00;15.77;;;14.80;45.80;;;;;;20998393;28;20210;-68
2022/03/26 11:07:11;;;;;;;29.70;12.60;;;15.00;45.80;;;;;;20997530;28;20235;-72
2022/03/26 11:17:33;;;;;;;30.83;12.37;;;15.20;45.70;;;;;;20996406;28;20287;-72
2022/03/26 11:28:00;;;;;;;22.83;10.27;;;15.40;45.10;;;;;;20996294;28;20237;-70
2022/03/26 11:38:03;;;;;;;21.93;9.80;;;15.60;44.30;;;;;;20994500;28;20265;-68
2022/03/26 11:58:30;;;;;;;21.70;7.90;;;16.00;43.20;;;;;;20994506;28;20647;-70
2022/03/26 12:08:40;;;;;;;17.27;8.60;;;16.30;46.40;;;;;;20994622;28;20695;-64
2022/03/26 12:18:43;;;;;;;22.47;8.37;;;16.70;46.10;;;;;;20993349;28;20614;-63
2022/03/26 12:28:50;;;;;;;15.77;9.17;;;17.10;44.70;;;;;;20991478;28;20718;-65
2022/03/26 12:38:55;;;;;;;18.83;8.87;;;17.50;44.00;;;;;;20993166;28;20210;-65
2022/03/26 12:48:58;;;;;;;18.37;9.80;;;17.70;44.10;;;;;;21000636;28;20233;-64
2022/03/26 12:59:00;;;;;;;19.77;9.57;;;18.00;43.40;;;;;;21007787;28;20214;-64
2022/03/26 13:09:02;;;;;;;20.57;10.50;;;18.40;42.80;;;;;;21005483;28;20287;-64
2022/03/26 13:19:09;;;;;;;24.67;10.67;;;18.50;43.20;;;;;;21004852;28;20287;-64
2022/03/26 13:29:20;;;;;;;18.77;10.37;;;18.70;41.30;;;;;;21003513;28;20239;-66
2022/03/26 13:39:25;;;;;;;30.43;11.77;;;19.00;40.80;;;;;;20987263;28;20210;-64
2022/03/26 13:49:32;;;;;;;27.70;10.47;;;19.10;41.10;;;;;;21003792;28;20296;-63
2022/03/26 13:59:37;;;;;;;26.20;10.93;;;19.30;41.30;;;;;;21054662;28;20849;-64
2022/03/26 14:09:54;;;;;;;18.97;10.07;;;19.60;40.60;;;;;;21085587;28;20241;-64
2022/03/26 14:19:56;;;;;;;19.27;9.40;;;20.20;38.30;;;;;;21083510;28;20230;-68
2022/03/26 14:29:58;;;;;;;26.40;10.50;;;20.60;38.40;;;;;;21083769;28;20246;-64
2022/03/26 14:40:00;;;;;;;22.80;10.45;;;22.60;37.10;;;;;;21084652;28;20206;-72
2022/03/26 14:50:03;;;;;;;20.52;10.93;;;25.30;33.70;;;;;;21084816;28;20238;-65
2022/03/26 15:00:07;;;;;;;25.27;10.07;;;25.40;33.60;;;;;;21082411;28;20267;-62
2022/03/26 15:10:10;;;;;;;22.35;10.00;;;25.50;32.60;;;;;;21086649;28;20231;-66
2022/03/26 15:20:12;;;;;;;23.65;10.68;;;27.30;31.20;;;;;;21082643;28;20234;-66
2022/03/26 15:30:13;;;;;;;25.17;11.40;;;26.20;30.80;;;;;;21080723;28;20234;-65
2022/03/26 15:40:15;;;;;;;22.00;10.20;;;25.50;31.30;;;;;;21075506;28;20203;-64
2022/03/26 15:50:17;;;;;;;20.85;10.23;;;25.60;30.40;;;;;;20990790;28;20231;-64
2022/03/26 16:00:18;;;;;;;25.17;10.53;;;25.60;29.70;;;;;;20993979;28;20207;-64
2022/03/26 16:10:20;;;;;;;20.50;10.33;;;23.80;30.20;;;;;;21028775;28;20295;-63
2022/03/26 16:20:22;;;;;;;21.33;9.67;;;22.50;30.00;;;;;;20996674;28;20261;-63
2022/03/26 16:30:24;;;;;;;23.27;9.30;;;21.60;30.40;;;;;;21009725;28;20231;-64
2022/03/26 16:40:26;;;;;;;19.57;9.30;;;20.90;31.00;;;;;;21009917;28;20666;-64
2022/03/26 16:50:30;;;;;;;26.23;10.77;;;20.50;31.90;;;;;;21007819;28;20242;-64
2022/03/26 17:00:35;;;;;;;21.33;10.87;;;20.10;32.70;;;;;;21007434;28;20433;-63
2022/03/26 17:10:37;;;;;;;20.27;10.47;;;19.70;33.50;;;;;;21006837;28;20231;-64
2022/03/26 17:20:39;;;;;;;17.23;9.80;;;19.30;34.20;;;;;;21005274;28;20238;-64
2022/03/26 17:30:41;;;;;;;27.50;10.60;;;19.00;34.70;;;;;;21002395;28;20319;-63
2022/03/26 17:40:43;;;;;;;30.07;12.00;;;18.80;35.30;;;;;;21004183;28;20221;-64
2022/03/26 17:50:45;;;;;;;23.33;13.53;;;18.50;36.00;;;;;;21003186;28;20240;-66
2022/03/26 18:00:47;;;;;;;20.43;11.10;;;18.10;37.30;;;;;;21002005;28;20204;-65
2022/03/26 18:10:50;;;;;;;29.07;11.43;;;17.80;38.00;;;;;;21000663;28;20713;-64
2022/03/26 18:20:51;;;;;;;20.23;10.43;;;17.60;38.70;;;;;;21000572;28;20231;-64
2022/03/26 18:30:53;;;;;;;25.50;11.97;;;17.30;39.50;;;;;;21000738;28;20291;-63
2022/03/26 18:40:55;;;;;;;28.90;12.73;;;16.70;40.60;;;;;;20999022;28;20210;-64
2022/03/26 18:50:56;;;;;;;24.77;13.10;;;16.60;42.20;;;;;;20997969;28;20337;-64
2022/03/26 19:00:58;;;;;;;39.13;13.03;;;16.20;41.90;;;;;;20996224;28;20259;-63
2022/03/26 19:11:00;;;;;;;36.33;13.40;;;16.10;42.80;;;;;;20996388;28;20231;-63
2022/03/26 19:21:02;;;;;;;45.47;18.13;;;15.80;43.60;;;;;;20993838;28;20612;-64
2022/03/26 19:31:04;;;;;;;37.43;20.03;;;15.50;44.40;;;;;;20993311;28;20290;-63
2022/03/26 19:41:06;;;;;;;26.73;15.93;;;15.30;44.80;;;;;;21012441;28;20286;-65
2022/03/26 19:51:09;;;;;;;27.53;14.27;;;15.00;45.50;;;;;;21073561;28;20241;-63
2022/03/26 20:01:10;;;;;;;32.47;13.63;;;14.80;46.20;;;;;;21074592;28;20720;-65
2022/03/26 20:11:13;;;;;;;23.80;12.33;;;14.60;46.60;;;;;;21075518;28;20715;-63
2022/03/26 20:21:15;;;;;;;28.60;11.93;;;14.30;47.70;;;;;;21074548;28;20273;-65
2022/03/26 20:31:17;;;;;;;22.67;11.23;;;14.00;47.30;;;;;;21074439;28;20291;-65
2022/03/26 20:41:18;;;;;;;23.57;10.50;;;13.80;47.90;;;;;;21074182;28;20206;-63
2022/03/26 20:51:20;;;;;;;26.60;11.10;;;13.60;48.10;;;;;;21072880;28;20226;-64
2022/03/26 21:01:22;;;;;;;23.27;10.87;;;13.30;48.80;;;;;;21074435;28;20199;-63
2022/03/26 21:11:24;;;;;;;19.97;10.50;;;13.20;49.10;;;;;;21091640;28;20340;-65
2022/03/26 21:21:27;;;;;;;19.90;10.87;;;13.00;49.10;;;;;;21087905;28;20238;-63
2022/03/26 21:31:28;;;;;;;20.27;11.03;;;12.80;49.80;;;;;;21086794;28;20236;-64
2022/03/26 21:41:30;;;;;;;20.30;10.60;;;12.60;50.30;;;;;;21063664;28;20212;-65
2022/03/26 21:51:32;;;;;;;19.83;10.43;;;12.40;50.80;;;;;;20999660;28;20373;-63
2022/03/26 22:01:34;;;;;;;21.23;11.53;;;12.30;51.20;;;;;;21000140;28;20209;-63
2022/03/26 22:11:36;;;;;;;22.87;10.93;;;12.10;51.50;;;;;;20999328;28;20239;-64
2022/03/26 22:21:37;;;;;;;20.57;11.23;;;12.00;52.00;;;;;;20998734;28;20642;-64
2022/03/26 22:31:40;;;;;;;24.67;11.10;;;11.80;52.70;;;;;;20997830;28;20294;-62
2022/03/26 22:41:42;;;;;;;21.60;11.70;;;11.70;53.00;;;;;;20983410;28;20215;-64
2022/03/26 22:51:44;;;;;;;26.20;10.87;;;11.60;53.00;;;;;;21000824;28;20236;-64
2022/03/26 23:02:03;;;;;;;18.53;10.77;;;11.30;53.40;;;;;;20999609;28;20203;-62
2022/03/26 23:12:05;;;;;;;17.40;9.50;;;11.30;53.60;;;;;;20997890;28;20243;-62
2022/03/26 23:22:07;;;;;;;20.83;8.77;;;11.10;53.80;;;;;;20996631;28;20337;-62
2022/03/26 23:32:09;;;;;;;17.80;9.17;;;11.00;53.80;;;;;;20995436;28;20238;-63
2022/03/26 23:42:11;;;;;;;17.90;9.77;;;10.90;54.00;;;;;;20995773;28;20218;-63
2022/03/26 23:52:13;;;;;;;17.77;9.10;;;10.70;54.90;;;;;;20993969;28;20232;-63
